Terminal Aerodrome Forecast
Issued by NWS

Home | Current Version | Previous Version | Graphics & Text | Print | Product List | Glossary On
Versions: 1 2 3 4 5 6 7 8 9 10 11 12 13 14 15 16
000
FTUS41 KCLE 151137
TAFFDY
TAF
KFDY 151137Z 1512/1612 22004KT P6SM FEW250
      TEMPO 1512/1513 3SM BR
     FM151600 26006KT P6SM BKN050
     FM152200 28005KT P6SM SCT250=

USA.gov is the U.S. government's official web portal to all federal, state and local government web resources and services.